sensor_id;sensor_type;location;lat;lon;timestamp;temperature;humidity
66190;DHT22;52992;52.084;5.412;2023-09-08T00:00:20;24.00;54.30
66190;DHT22;52992;52.084;5.412;2023-09-08T00:02:47;23.90;54.40
66190;DHT22;52992;52.084;5.412;2023-09-08T00:05:14;23.90;54.70
66190;DHT22;52992;52.084;5.412;2023-09-08T00:07:41;23.90;55.00
66190;DHT22;52992;52.084;5.412;2023-09-08T00:10:09;23.80;55.20
66190;DHT22;52992;52.084;5.412;2023-09-08T00:12:38;23.80;56.20
66190;DHT22;52992;52.084;5.412;2023-09-08T00:15:06;23.80;55.50
66190;DHT22;52992;52.084;5.412;2023-09-08T00:17:33;23.80;55.60
66190;DHT22;52992;52.084;5.412;2023-09-08T00:20:00;23.80;55.40
66190;DHT22;52992;52.084;5.412;2023-09-08T00:22:27;23.80;55.40
66190;DHT22;52992;52.084;5.412;2023-09-08T00:24:54;23.80;55.30
66190;DHT22;52992;52.084;5.412;2023-09-08T00:27:21;23.80;55.30
66190;DHT22;52992;52.084;5.412;2023-09-08T00:29:48;23.80;55.20
66190;DHT22;52992;52.084;5.412;2023-09-08T00:32:16;23.70;55.20
66190;DHT22;52992;52.084;5.412;2023-09-08T00:34:43;23.70;55.30
66190;DHT22;52992;52.084;5.412;2023-09-08T00:37:10;23.70;55.50
66190;DHT22;52992;52.084;5.412;2023-09-08T00:39:38;23.70;55.60
66190;DHT22;52992;52.084;5.412;2023-09-08T00:42:06;23.70;55.90
66190;DHT22;52992;52.084;5.412;2023-09-08T00:44:34;23.70;56.00
66190;DHT22;52992;52.084;5.412;2023-09-08T00:47:01;23.70;55.90
66190;DHT22;52992;52.084;5.412;2023-09-08T00:49:28;23.70;55.80
66190;DHT22;52992;52.084;5.412;2023-09-08T00:51:55;23.70;55.60
66190;DHT22;52992;52.084;5.412;2023-09-08T00:54:22;23.70;55.60
66190;DHT22;52992;52.084;5.412;2023-09-08T00:56:55;23.60;55.50
66190;DHT22;52992;52.084;5.412;2023-09-08T00:59:24;23.60;55.40
66190;DHT22;52992;52.084;5.412;2023-09-08T01:01:52;23.60;55.40
66190;DHT22;52992;52.084;5.412;2023-09-08T01:04:20;23.60;55.20
66190;DHT22;52992;52.084;5.412;2023-09-08T01:06:47;23.60;55.20
66190;DHT22;52992;52.084;5.412;2023-09-08T01:09:15;23.60;55.30
66190;DHT22;52992;52.084;5.412;2023-09-08T01:11:42;23.60;55.40
66190;DHT22;52992;52.084;5.412;2023-09-08T01:14:12;23.60;55.50
66190;DHT22;52992;52.084;5.412;2023-09-08T01:16:40;23.50;55.60
66190;DHT22;52992;52.084;5.412;2023-09-08T01:19:11;23.50;55.30
66190;DHT22;52992;52.084;5.412;2023-09-08T01:26:57;23.40;54.90
66190;DHT22;52992;52.084;5.412;2023-09-08T01:29:25;23.40;55.00
66190;DHT22;52992;52.084;5.412;2023-09-08T01:31:53;23.30;55.20
66190;DHT22;52992;52.084;5.412;2023-09-08T01:34:20;23.30;55.10
66190;DHT22;52992;52.084;5.412;2023-09-08T01:36:48;23.30;55.00
66190;DHT22;52992;52.084;5.412;2023-09-08T01:39:15;23.30;55.00
66190;DHT22;52992;52.084;5.412;2023-09-08T01:41:42;23.20;55.00
66190;DHT22;52992;52.084;5.412;2023-09-08T01:44:09;23.30;55.10
66190;DHT22;52992;52.084;5.412;2023-09-08T01:46:38;23.20;55.10
66190;DHT22;52992;52.084;5.412;2023-09-08T01:49:08;23.20;55.00
66190;DHT22;52992;52.084;5.412;2023-09-08T01:51:35;23.20;55.00
66190;DHT22;52992;52.084;5.412;2023-09-08T01:54:02;23.20;54.90
66190;DHT22;52992;52.084;5.412;2023-09-08T01:56:29;23.10;54.90
66190;DHT22;52992;52.084;5.412;2023-09-08T01:58:56;23.10;54.80
66190;DHT22;52992;52.084;5.412;2023-09-08T02:01:23;23.10;54.90
66190;DHT22;52992;52.084;5.412;2023-09-08T02:03:50;23.10;54.80
66190;DHT22;52992;52.084;5.412;2023-09-08T02:06:16;23.10;54.80
66190;DHT22;52992;52.084;5.412;2023-09-08T02:08:43;23.00;54.70
66190;DHT22;52992;52.084;5.412;2023-09-08T02:11:10;23.00;54.70
66190;DHT22;52992;52.084;5.412;2023-09-08T02:13:40;23.00;54.70
66190;DHT22;52992;52.084;5.412;2023-09-08T02:16:16;23.00;54.70
66190;DHT22;52992;52.084;5.412;2023-09-08T02:18:43;23.00;54.80
66190;DHT22;52992;52.084;5.412;2023-09-08T02:21:11;22.90;54.80
66190;DHT22;52992;52.084;5.412;2023-09-08T02:23:38;22.90;54.80
66190;DHT22;52992;52.084;5.412;2023-09-08T02:26:06;22.90;55.10
66190;DHT22;52992;52.084;5.412;2023-09-08T02:28:33;22.90;55.30
66190;DHT22;52992;52.084;5.412;2023-09-08T02:31:01;22.90;55.20
66190;DHT22;52992;52.084;5.412;2023-09-08T02:33:28;22.90;55.10
66190;DHT22;52992;52.084;5.412;2023-09-08T02:36:00;22.80;54.90
66190;DHT22;52992;52.084;5.412;2023-09-08T02:38:27;22.80;55.00
66190;DHT22;52992;52.084;5.412;2023-09-08T02:40:54;22.80;55.10
66190;DHT22;52992;52.084;5.412;2023-09-08T02:43:21;22.70;55.00
66190;DHT22;52992;52.084;5.412;2023-09-08T02:45:48;22.70;55.00
66190;DHT22;52992;52.084;5.412;2023-09-08T02:48:16;22.70;55.20
66190;DHT22;52992;52.084;5.412;2023-09-08T02:50:43;22.70;55.10
66190;DHT22;52992;52.084;5.412;2023-09-08T02:53:10;22.60;55.00
66190;DHT22;52992;52.084;5.412;2023-09-08T02:55:37;22.60;54.90
66190;DHT22;52992;52.084;5.412;2023-09-08T02:58:04;22.60;55.00
66190;DHT22;52992;52.084;5.412;2023-09-08T03:00:31;22.60;55.00
66190;DHT22;52992;52.084;5.412;2023-09-08T03:02:58;22.60;55.00
66190;DHT22;52992;52.084;5.412;2023-09-08T03:05:26;22.60;55.00
66190;DHT22;52992;52.084;5.412;2023-09-08T03:07:53;22.50;55.10
66190;DHT22;52992;52.084;5.412;2023-09-08T03:10:20;22.50;55.20
66190;DHT22;52992;52.084;5.412;2023-09-08T03:12:47;22.50;55.40
66190;DHT22;52992;52.084;5.412;2023-09-08T03:15:16;22.50;55.50
66190;DHT22;52992;52.084;5.412;2023-09-08T03:17:43;22.50;55.50
66190;DHT22;52992;52.084;5.412;2023-09-08T03:20:10;22.40;55.30
66190;DHT22;52992;52.084;5.412;2023-09-08T03:22:37;22.40;55.20
66190;DHT22;52992;52.084;5.412;2023-09-08T03:25:05;22.40;55.20
66190;DHT22;52992;52.084;5.412;2023-09-08T03:27:32;22.40;55.10
66190;DHT22;52992;52.084;5.412;2023-09-08T03:29:59;22.40;55.10
66190;DHT22;52992;52.084;5.412;2023-09-08T03:32:26;22.40;55.10
66190;DHT22;52992;52.084;5.412;2023-09-08T03:34:56;22.30;55.40
66190;DHT22;52992;52.084;5.412;2023-09-08T03:37:23;22.30;55.40
66190;DHT22;52992;52.084;5.412;2023-09-08T03:39:50;22.30;55.60
66190;DHT22;52992;52.084;5.412;2023-09-08T03:42:17;22.30;55.80
66190;DHT22;52992;52.084;5.412;2023-09-08T03:44:44;22.30;56.00
66190;DHT22;52992;52.084;5.412;2023-09-08T03:47:11;22.30;56.20
66190;DHT22;52992;52.084;5.412;2023-09-08T03:49:38;22.20;56.10
66190;DHT22;52992;52.084;5.412;2023-09-08T03:52:05;22.30;56.10
66190;DHT22;52992;52.084;5.412;2023-09-08T03:54:32;22.30;56.10
66190;DHT22;52992;52.084;5.412;2023-09-08T03:56:59;22.20;56.00
66190;DHT22;52992;52.084;5.412;2023-09-08T03:59:26;22.20;56.10
66190;DHT22;52992;52.084;5.412;2023-09-08T04:01:53;22.20;56.20
66190;DHT22;52992;52.084;5.412;2023-09-08T04:04:20;22.20;56.40
66190;DHT22;52992;52.084;5.412;2023-09-08T04:06:47;22.20;56.50
66190;DHT22;52992;52.084;5.412;2023-09-08T04:09:14;22.20;56.40
66190;DHT22;52992;52.084;5.412;2023-09-08T04:11:42;22.20;56.30
66190;DHT22;52992;52.084;5.412;2023-09-08T04:14:09;22.10;56.30
66190;DHT22;52992;52.084;5.412;2023-09-08T04:16:36;22.10;56.40
66190;DHT22;52992;52.084;5.412;2023-09-08T04:19:03;22.10;56.30
66190;DHT22;52992;52.084;5.412;2023-09-08T04:21:31;22.10;56.20
66190;DHT22;52992;52.084;5.412;2023-09-08T04:23:57;22.10;56.10
66190;DHT22;52992;52.084;5.412;2023-09-08T04:26:24;22.10;56.20
66190;DHT22;52992;52.084;5.412;2023-09-08T04:28:51;22.10;56.40
66190;DHT22;52992;52.084;5.412;2023-09-08T04:31:18;22.00;56.20
66190;DHT22;52992;52.084;5.412;2023-09-08T04:33:46;22.00;56.00
66190;DHT22;52992;52.084;5.412;2023-09-08T04:36:13;22.00;55.90
66190;DHT22;52992;52.084;5.412;2023-09-08T04:38:42;22.00;55.90
66190;DHT22;52992;52.084;5.412;2023-09-08T04:41:09;22.00;55.90
66190;DHT22;52992;52.084;5.412;2023-09-08T04:43:36;22.00;56.00
66190;DHT22;52992;52.084;5.412;2023-09-08T04:46:03;21.90;56.10
66190;DHT22;52992;52.084;5.412;2023-09-08T04:48:31;21.90;56.30
66190;DHT22;52992;52.084;5.412;2023-09-08T04:50:58;21.90;56.30
66190;DHT22;52992;52.084;5.412;2023-09-08T04:53:25;21.90;56.10
66190;DHT22;52992;52.084;5.412;2023-09-08T04:55:53;21.90;56.10
66190;DHT22;52992;52.084;5.412;2023-09-08T04:58:20;21.90;55.90
66190;DHT22;52992;52.084;5.412;2023-09-08T05:00:48;21.90;55.80
66190;DHT22;52992;52.084;5.412;2023-09-08T05:03:15;21.90;56.00
66190;DHT22;52992;52.084;5.412;2023-09-08T05:05:42;21.80;56.10
66190;DHT22;52992;52.084;5.412;2023-09-08T05:08:09;21.80;56.20
66190;DHT22;52992;52.084;5.412;2023-09-08T05:10:36;21.80;56.10
66190;DHT22;52992;52.084;5.412;2023-09-08T05:13:03;21.80;56.00
66190;DHT22;52992;52.084;5.412;2023-09-08T05:15:39;21.80;55.90
66190;DHT22;52992;52.084;5.412;2023-09-08T05:18:09;21.80;56.00
66190;DHT22;52992;52.084;5.412;2023-09-08T05:20:36;21.70;56.20
66190;DHT22;52992;52.084;5.412;2023-09-08T05:23:03;21.70;56.20
66190;DHT22;52992;52.084;5.412;2023-09-08T05:25:30;21.70;56.20
66190;DHT22;52992;52.084;5.412;2023-09-08T05:27:57;21.70;56.20
66190;DHT22;52992;52.084;5.412;2023-09-08T05:30:24;21.70;56.40
66190;DHT22;52992;52.084;5.412;2023-09-08T05:32:51;21.70;56.50
66190;DHT22;52992;52.084;5.412;2023-09-08T05:35:19;21.70;56.50
66190;DHT22;52992;52.084;5.412;2023-09-08T05:37:48;21.70;56.70
66190;DHT22;52992;52.084;5.412;2023-09-08T05:40:15;21.70;56.80
66190;DHT22;52992;52.084;5.412;2023-09-08T05:42:42;21.70;56.80
66190;DHT22;52992;52.084;5.412;2023-09-08T05:45:11;21.80;56.80
66190;DHT22;52992;52.084;5.412;2023-09-08T05:47:39;21.80;57.00
66190;DHT22;52992;52.084;5.412;2023-09-08T05:50:06;21.80;57.20
66190;DHT22;52992;52.084;5.412;2023-09-08T05:52:33;21.80;57.20
66190;DHT22;52992;52.084;5.412;2023-09-08T05:55:01;21.90;57.30
66190;DHT22;52992;52.084;5.412;2023-09-08T05:57:30;21.90;57.10
66190;DHT22;52992;52.084;5.412;2023-09-08T05:59:57;21.90;57.00
66190;DHT22;52992;52.084;5.412;2023-09-08T06:02:24;22.00;57.20
66190;DHT22;52992;52.084;5.412;2023-09-08T06:04:51;22.00;57.30
66190;DHT22;52992;52.084;5.412;2023-09-08T06:07:18;22.00;57.40
66190;DHT22;52992;52.084;5.412;2023-09-08T06:09:45;22.10;57.60
66190;DHT22;52992;52.084;5.412;2023-09-08T06:12:13;22.10;57.60
66190;DHT22;52992;52.084;5.412;2023-09-08T06:14:39;22.10;57.70
66190;DHT22;52992;52.084;5.412;2023-09-08T06:17:10;22.20;57.70
66190;DHT22;52992;52.084;5.412;2023-09-08T06:19:37;22.20;57.70
66190;DHT22;52992;52.084;5.412;2023-09-08T06:22:05;22.30;57.80
66190;DHT22;52992;52.084;5.412;2023-09-08T06:24:32;22.30;57.80
66190;DHT22;52992;52.084;5.412;2023-09-08T06:27:01;22.40;57.80
66190;DHT22;52992;52.084;5.412;2023-09-08T06:29:28;22.40;57.80
66190;DHT22;52992;52.084;5.412;2023-09-08T06:31:55;22.50;57.90
66190;DHT22;52992;52.084;5.412;2023-09-08T06:34:22;22.60;57.90
66190;DHT22;52992;52.084;5.412;2023-09-08T06:36:50;22.70;58.00
66190;DHT22;52992;52.084;5.412;2023-09-08T06:39:18;22.80;57.90
66190;DHT22;52992;52.084;5.412;2023-09-08T06:41:45;22.80;57.80
66190;DHT22;52992;52.084;5.412;2023-09-08T06:44:14;23.00;57.70
66190;DHT22;52992;52.084;5.412;2023-09-08T06:46:41;23.10;57.60
66190;DHT22;52992;52.084;5.412;2023-09-08T06:49:08;23.20;57.40
66190;DHT22;52992;52.084;5.412;2023-09-08T06:51:36;23.40;57.30
66190;DHT22;52992;52.084;5.412;2023-09-08T06:54:04;23.50;57.20
66190;DHT22;52992;52.084;5.412;2023-09-08T06:56:37;23.70;57.00
66190;DHT22;52992;52.084;5.412;2023-09-08T06:59:05;23.80;56.90
66190;DHT22;52992;52.084;5.412;2023-09-08T07:01:33;24.00;56.90
66190;DHT22;52992;52.084;5.412;2023-09-08T07:04:00;24.20;56.80
66190;DHT22;52992;52.084;5.412;2023-09-08T07:06:28;24.30;56.70
66190;DHT22;52992;52.084;5.412;2023-09-08T07:08:57;24.50;56.40
66190;DHT22;52992;52.084;5.412;2023-09-08T07:11:24;24.70;56.00
66190;DHT22;52992;52.084;5.412;2023-09-08T07:13:51;24.80;55.50
66190;DHT22;52992;52.084;5.412;2023-09-08T07:16:18;24.90;55.40
66190;DHT22;52992;52.084;5.412;2023-09-08T07:18:45;25.10;55.50
66190;DHT22;52992;52.084;5.412;2023-09-08T07:21:12;25.10;55.30
66190;DHT22;52992;52.084;5.412;2023-09-08T07:23:39;25.30;55.30
66190;DHT22;52992;52.084;5.412;2023-09-08T07:26:08;25.40;55.00
66190;DHT22;52992;52.084;5.412;2023-09-08T07:28:35;25.50;54.50
66190;DHT22;52992;52.084;5.412;2023-09-08T07:31:06;25.60;53.90
66190;DHT22;52992;52.084;5.412;2023-09-08T07:33:39;25.60;54.10
66190;DHT22;52992;52.084;5.412;2023-09-08T07:36:07;25.60;53.70
66190;DHT22;52992;52.084;5.412;2023-09-08T07:38:36;25.70;53.70
66190;DHT22;52992;52.084;5.412;2023-09-08T07:41:03;25.90;53.70
66190;DHT22;52992;52.084;5.412;2023-09-08T07:43:31;25.90;53.30
66190;DHT22;52992;52.084;5.412;2023-09-08T07:45:59;26.10;54.20
66190;DHT22;52992;52.084;5.412;2023-09-08T07:48:25;26.20;54.40
66190;DHT22;52992;52.084;5.412;2023-09-08T07:50:52;26.40;54.20
66190;DHT22;52992;52.084;5.412;2023-09-08T07:53:19;26.50;53.60
66190;DHT22;52992;52.084;5.412;2023-09-08T07:55:46;26.60;52.70
66190;DHT22;52992;52.084;5.412;2023-09-08T07:58:13;26.70;52.80
66190;DHT22;52992;52.084;5.412;2023-09-08T08:00:40;26.80;52.70
66190;DHT22;52992;52.084;5.412;2023-09-08T08:03:07;27.00;53.20
66190;DHT22;52992;52.084;5.412;2023-09-08T08:05:35;27.20;53.20
66190;DHT22;52992;52.084;5.412;2023-09-08T08:08:02;27.40;53.00
66190;DHT22;52992;52.084;5.412;2023-09-08T08:10:29;27.50;52.30
66190;DHT22;52992;52.084;5.412;2023-09-08T08:12:57;27.70;51.60
66190;DHT22;52992;52.084;5.412;2023-09-08T08:15:37;27.80;51.40
66190;DHT22;52992;52.084;5.412;2023-09-08T08:18:05;27.80;52.00
66190;DHT22;52992;52.084;5.412;2023-09-08T08:20:33;27.80;51.20
66190;DHT22;52992;52.084;5.412;2023-09-08T08:23:05;27.90;51.90
66190;DHT22;52992;52.084;5.412;2023-09-08T08:25:32;28.10;52.40
66190;DHT22;52992;52.084;5.412;2023-09-08T08:27:59;28.20;51.90
66190;DHT22;52992;52.084;5.412;2023-09-08T08:30:28;28.20;51.90
66190;DHT22;52992;52.084;5.412;2023-09-08T08:32:56;28.40;52.90
66190;DHT22;52992;52.084;5.412;2023-09-08T08:35:23;28.50;53.50
66190;DHT22;52992;52.084;5.412;2023-09-08T08:37:50;28.70;53.50
66190;DHT22;52992;52.084;5.412;2023-09-08T08:40:17;28.90;52.10
66190;DHT22;52992;52.084;5.412;2023-09-08T08:42:44;29.00;51.90
66190;DHT22;52992;52.084;5.412;2023-09-08T08:45:11;29.10;52.30
66190;DHT22;52992;52.084;5.412;2023-09-08T08:47:39;29.20;52.80
66190;DHT22;52992;52.084;5.412;2023-09-08T08:50:08;29.40;53.40
66190;DHT22;52992;52.084;5.412;2023-09-08T08:52:38;29.60;53.10
66190;DHT22;52992;52.084;5.412;2023-09-08T08:55:06;29.80;51.20
66190;DHT22;52992;52.084;5.412;2023-09-08T08:57:33;29.90;50.60
66190;DHT22;52992;52.084;5.412;2023-09-08T09:00:01;29.90;48.50
66190;DHT22;52992;52.084;5.412;2023-09-08T09:02:31;30.00;50.60
66190;DHT22;52992;52.084;5.412;2023-09-08T09:04:58;30.20;50.20
66190;DHT22;52992;52.084;5.412;2023-09-08T09:07:26;30.40;49.10
66190;DHT22;52992;52.084;5.412;2023-09-08T09:09:54;30.60;49.20
66190;DHT22;52992;52.084;5.412;2023-09-08T09:12:22;31.00;48.50
66190;DHT22;52992;52.084;5.412;2023-09-08T09:14:53;31.40;47.30
66190;DHT22;52992;52.084;5.412;2023-09-08T09:17:20;31.70;45.50
66190;DHT22;52992;52.084;5.412;2023-09-08T09:19:48;31.90;44.60
66190;DHT22;52992;52.084;5.412;2023-09-08T09:22:20;32.20;45.20
66190;DHT22;52992;52.084;5.412;2023-09-08T09:24:48;32.60;43.70
66190;DHT22;52992;52.084;5.412;2023-09-08T09:27:15;32.90;43.60
66190;DHT22;52992;52.084;5.412;2023-09-08T09:29:49;33.20;44.50
66190;DHT22;52992;52.084;5.412;2023-09-08T09:32:23;33.30;43.80
66190;DHT22;52992;52.084;5.412;2023-09-08T09:34:51;33.40;43.90
66190;DHT22;52992;52.084;5.412;2023-09-08T09:37:23;33.60;42.60
66190;DHT22;52992;52.084;5.412;2023-09-08T09:39:54;33.70;42.70
66190;DHT22;52992;52.084;5.412;2023-09-08T09:42:22;33.90;43.10
66190;DHT22;52992;52.084;5.412;2023-09-08T09:44:51;34.30;41.80
66190;DHT22;52992;52.084;5.412;2023-09-08T09:47:19;34.80;39.80
66190;DHT22;52992;52.084;5.412;2023-09-08T09:49:48;35.50;37.30
66190;DHT22;52992;52.084;5.412;2023-09-08T09:52:21;36.00;35.30
66190;DHT22;52992;52.084;5.412;2023-09-08T09:54:49;36.50;35.20
66190;DHT22;52992;52.084;5.412;2023-09-08T09:57:21;36.90;34.30
66190;DHT22;52992;52.084;5.412;2023-09-08T09:59:49;37.50;33.40
66190;DHT22;52992;52.084;5.412;2023-09-08T10:02:20;37.90;32.50
66190;DHT22;52992;52.084;5.412;2023-09-08T10:04:49;38.30;31.80
66190;DHT22;52992;52.084;5.412;2023-09-08T10:07:18;38.60;32.00
66190;DHT22;52992;52.084;5.412;2023-09-08T10:09:46;39.00;31.30
66190;DHT22;52992;52.084;5.412;2023-09-08T10:12:14;39.30;30.50
66190;DHT22;52992;52.084;5.412;2023-09-08T10:14:42;39.60;30.00
66190;DHT22;52992;52.084;5.412;2023-09-08T10:17:15;39.80;29.60
66190;DHT22;52992;52.084;5.412;2023-09-08T10:19:45;40.10;29.60
66190;DHT22;52992;52.084;5.412;2023-09-08T10:22:20;40.30;29.00
66190;DHT22;52992;52.084;5.412;2023-09-08T10:24:50;40.50;29.00
66190;DHT22;52992;52.084;5.412;2023-09-08T10:27:20;40.60;28.70
66190;DHT22;52992;52.084;5.412;2023-09-08T10:29:51;40.70;28.60
66190;DHT22;52992;52.084;5.412;2023-09-08T10:32:20;40.70;28.60
66190;DHT22;52992;52.084;5.412;2023-09-08T10:34:48;40.80;28.50
66190;DHT22;52992;52.084;5.412;2023-09-08T10:37:24;40.70;28.40
66190;DHT22;52992;52.084;5.412;2023-09-08T10:39:52;40.40;29.20
66190;DHT22;52992;52.084;5.412;2023-09-08T10:42:24;39.80;29.80
66190;DHT22;52992;52.084;5.412;2023-09-08T10:44:58;39.10;31.30
66190;DHT22;52992;52.084;5.412;2023-09-08T10:47:30;38.50;32.40
66190;DHT22;52992;52.084;5.412;2023-09-08T10:49:57;37.90;33.50
66190;DHT22;52992;52.084;5.412;2023-09-08T10:52:27;37.60;33.80
66190;DHT22;52992;52.084;5.412;2023-09-08T10:54:55;37.40;35.20
66190;DHT22;52992;52.084;5.412;2023-09-08T10:57:25;37.20;35.10
66190;DHT22;52992;52.084;5.412;2023-09-08T11:00:03;37.10;35.70
66190;DHT22;52992;52.084;5.412;2023-09-08T11:02:49;37.10;36.10
66190;DHT22;52992;52.084;5.412;2023-09-08T11:05:21;37.30;35.40
66190;DHT22;52992;52.084;5.412;2023-09-08T11:07:48;37.30;35.00
66190;DHT22;52992;52.084;5.412;2023-09-08T11:10:20;37.40;35.20
66190;DHT22;52992;52.084;5.412;2023-09-08T11:12:47;37.50;34.60
66190;DHT22;52992;52.084;5.412;2023-09-08T11:15:15;37.70;34.00
66190;DHT22;52992;52.084;5.412;2023-09-08T11:17:42;37.80;33.20
66190;DHT22;52992;52.084;5.412;2023-09-08T11:20:09;37.70;33.40
66190;DHT22;52992;52.084;5.412;2023-09-08T11:22:38;37.30;34.30
66190;DHT22;52992;52.084;5.412;2023-09-08T11:25:09;37.10;35.70
66190;DHT22;52992;52.084;5.412;2023-09-08T11:27:39;36.80;35.70
66190;DHT22;52992;52.084;5.412;2023-09-08T11:30:08;36.60;36.30
66190;DHT22;52992;52.084;5.412;2023-09-08T11:32:35;36.40;35.30
66190;DHT22;52992;52.084;5.412;2023-09-08T11:35:07;36.20;35.40
66190;DHT22;52992;52.084;5.412;2023-09-08T11:37:39;36.20;35.60
66190;DHT22;52992;52.084;5.412;2023-09-08T11:40:08;36.20;35.80
66190;DHT22;52992;52.084;5.412;2023-09-08T11:42:43;36.10;36.60
66190;DHT22;52992;52.084;5.412;2023-09-08T11:45:16;36.00;37.70
66190;DHT22;52992;52.084;5.412;2023-09-08T11:47:48;35.90;37.10
66190;DHT22;52992;52.084;5.412;2023-09-08T11:50:18;35.80;36.40
66190;DHT22;52992;52.084;5.412;2023-09-08T11:52:50;35.80;36.60
66190;DHT22;52992;52.084;5.412;2023-09-08T11:55:19;35.90;36.50
66190;DHT22;52992;52.084;5.412;2023-09-08T11:57:49;36.10;37.20
66190;DHT22;52992;52.084;5.412;2023-09-08T12:00:18;36.70;35.10
66190;DHT22;52992;52.084;5.412;2023-09-08T12:02:46;37.90;32.80
66190;DHT22;52992;52.084;5.412;2023-09-08T12:05:21;39.20;30.80
66190;DHT22;52992;52.084;5.412;2023-09-08T12:07:53;40.20;28.80
66190;DHT22;52992;52.084;5.412;2023-09-08T12:10:22;41.00;27.80
66190;DHT22;52992;52.084;5.412;2023-09-08T12:12:50;41.40;26.90
66190;DHT22;52992;52.084;5.412;2023-09-08T12:15:35;41.80;26.90
66190;DHT22;52992;52.084;5.412;2023-09-08T12:18:05;42.20;27.00
66190;DHT22;52992;52.084;5.412;2023-09-08T12:20:33;42.30;25.80
66190;DHT22;52992;52.084;5.412;2023-09-08T12:23:05;41.80;25.90
66190;DHT22;52992;52.084;5.412;2023-09-08T12:25:32;41.30;26.80
66190;DHT22;52992;52.084;5.412;2023-09-08T12:28:04;41.00;27.30
66190;DHT22;52992;52.084;5.412;2023-09-08T12:30:31;40.40;28.10
66190;DHT22;52992;52.084;5.412;2023-09-08T12:33:01;39.60;30.00
66190;DHT22;52992;52.084;5.412;2023-09-08T12:35:29;38.70;31.70
66190;DHT22;52992;52.084;5.412;2023-09-08T12:38:00;37.80;33.90
66190;DHT22;52992;52.084;5.412;2023-09-08T12:40:29;37.00;35.40
66190;DHT22;52992;52.084;5.412;2023-09-08T12:42:56;36.30;36.20
66190;DHT22;52992;52.084;5.412;2023-09-08T12:45:44;35.80;36.90
66190;DHT22;52992;52.084;5.412;2023-09-08T12:48:13;35.30;37.90
66190;DHT22;52992;52.084;5.412;2023-09-08T12:50:40;35.00;39.20
66190;DHT22;52992;52.084;5.412;2023-09-08T12:53:07;34.80;38.60
66190;DHT22;52992;52.084;5.412;2023-09-08T12:55:34;34.70;39.80
66190;DHT22;52992;52.084;5.412;2023-09-08T12:58:01;34.70;39.00
66190;DHT22;52992;52.084;5.412;2023-09-08T13:00:28;34.70;39.50
66190;DHT22;52992;52.084;5.412;2023-09-08T13:02:55;34.70;39.40
66190;DHT22;52992;52.084;5.412;2023-09-08T13:05:22;34.70;40.50
66190;DHT22;52992;52.084;5.412;2023-09-08T13:07:50;34.60;40.00
66190;DHT22;52992;52.084;5.412;2023-09-08T13:10:17;34.50;39.70
66190;DHT22;52992;52.084;5.412;2023-09-08T13:12:45;34.70;39.10
66190;DHT22;52992;52.084;5.412;2023-09-08T13:15:12;35.20;38.10
66190;DHT22;52992;52.084;5.412;2023-09-08T13:17:39;35.40;37.10
66190;DHT22;52992;52.084;5.412;2023-09-08T13:20:06;35.20;38.70
66190;DHT22;52992;52.084;5.412;2023-09-08T13:22:34;35.00;39.10
66190;DHT22;52992;52.084;5.412;2023-09-08T13:25:01;34.70;39.40
66190;DHT22;52992;52.084;5.412;2023-09-08T13:27:28;34.60;39.30
66190;DHT22;52992;52.084;5.412;2023-09-08T13:30:08;34.70;39.10
66190;DHT22;52992;52.084;5.412;2023-09-08T13:32:36;35.00;39.40
66190;DHT22;52992;52.084;5.412;2023-09-08T13:35:03;35.50;38.60
66190;DHT22;52992;52.084;5.412;2023-09-08T13:37:30;35.80;37.20
66190;DHT22;52992;52.084;5.412;2023-09-08T13:39:57;35.80;36.90
66190;DHT22;52992;52.084;5.412;2023-09-08T13:42:24;35.70;37.00
66190;DHT22;52992;52.084;5.412;2023-09-08T13:44:51;35.40;37.90
66190;DHT22;52992;52.084;5.412;2023-09-08T13:47:18;35.10;39.20
66190;DHT22;52992;52.084;5.412;2023-09-08T13:49:46;34.80;40.40
66190;DHT22;52992;52.084;5.412;2023-09-08T13:52:14;34.60;40.70
66190;DHT22;52992;52.084;5.412;2023-09-08T13:54:44;34.60;40.20
66190;DHT22;52992;52.084;5.412;2023-09-08T13:57:12;34.50;40.60
66190;DHT22;52992;52.084;5.412;2023-09-08T13:59:40;34.50;40.00
66190;DHT22;52992;52.084;5.412;2023-09-08T14:02:09;34.50;40.60
66190;DHT22;52992;52.084;5.412;2023-09-08T14:04:56;34.40;40.00
66190;DHT22;52992;52.084;5.412;2023-09-08T14:07:29;34.30;40.90
66190;DHT22;52992;52.084;5.412;2023-09-08T14:09:59;34.10;39.40
66190;DHT22;52992;52.084;5.412;2023-09-08T14:12:45;33.90;39.80
66190;DHT22;52992;52.084;5.412;2023-09-08T14:15:12;33.80;40.50
66190;DHT22;52992;52.084;5.412;2023-09-08T14:17:42;33.80;40.10
66190;DHT22;52992;52.084;5.412;2023-09-08T14:20:09;33.70;40.40
66190;DHT22;52992;52.084;5.412;2023-09-08T14:22:37;33.60;41.10
66190;DHT22;52992;52.084;5.412;2023-09-08T14:25:05;33.50;41.50
66190;DHT22;52992;52.084;5.412;2023-09-08T14:27:32;33.60;42.70
66190;DHT22;52992;52.084;5.412;2023-09-08T14:30:00;33.60;41.90
66190;DHT22;52992;52.084;5.412;2023-09-08T14:32:28;33.60;42.00
66190;DHT22;52992;52.084;5.412;2023-09-08T14:34:55;33.50;41.90
66190;DHT22;52992;52.084;5.412;2023-09-08T14:37:22;33.50;41.10
66190;DHT22;52992;52.084;5.412;2023-09-08T14:39:49;33.40;41.20
66190;DHT22;52992;52.084;5.412;2023-09-08T14:42:16;33.40;41.10
66190;DHT22;52992;52.084;5.412;2023-09-08T14:44:43;33.30;40.90
66190;DHT22;52992;52.084;5.412;2023-09-08T14:47:10;33.30;40.90
66190;DHT22;52992;52.084;5.412;2023-09-08T14:49:38;33.30;40.60
66190;DHT22;52992;52.084;5.412;2023-09-08T14:52:05;33.30;40.70
66190;DHT22;52992;52.084;5.412;2023-09-08T14:54:32;33.30;40.70
66190;DHT22;52992;52.084;5.412;2023-09-08T14:56:59;33.20;40.60
66190;DHT22;52992;52.084;5.412;2023-09-08T14:59:26;33.20;40.50
66190;DHT22;52992;52.084;5.412;2023-09-08T15:01:53;33.20;40.40
66190;DHT22;52992;52.084;5.412;2023-09-08T15:04:21;33.20;40.90
66190;DHT22;52992;52.084;5.412;2023-09-08T15:06:48;33.20;41.40
66190;DHT22;52992;52.084;5.412;2023-09-08T15:09:16;33.20;41.90
66190;DHT22;52992;52.084;5.412;2023-09-08T15:11:43;33.20;41.80
66190;DHT22;52992;52.084;5.412;2023-09-08T15:14:11;33.20;41.30
66190;DHT22;52992;52.084;5.412;2023-09-08T15:16:39;33.20;40.90
66190;DHT22;52992;52.084;5.412;2023-09-08T15:19:07;33.30;41.20
66190;DHT22;52992;52.084;5.412;2023-09-08T15:21:35;33.30;41.50
66190;DHT22;52992;52.084;5.412;2023-09-08T15:24:02;33.20;41.00
66190;DHT22;52992;52.084;5.412;2023-09-08T15:26:29;33.20;41.10
66190;DHT22;52992;52.084;5.412;2023-09-08T15:28:56;33.30;42.00
66190;DHT22;52992;52.084;5.412;2023-09-08T15:31:25;33.30;41.70
66190;DHT22;52992;52.084;5.412;2023-09-08T15:33:53;33.20;40.80
66190;DHT22;52992;52.084;5.412;2023-09-08T15:36:20;33.20;40.30
66190;DHT22;52992;52.084;5.412;2023-09-08T15:38:47;33.20;39.90
66190;DHT22;52992;52.084;5.412;2023-09-08T15:41:17;33.20;40.50